Latest Coastal Weather Observations for Cape Ferguson

IDQ60701

Issued at 6:21 pm EST Monday 5 December 2016 (issued every 10 minutes, with the page automatically refreshed every 10 minutes)

About coastal observations | Map of coastal stations | Coastal observations for QLD | Marine services | Other Formats
Station Details ID: 032182 Name: CAPE FERGUSON NTC AWS Lat: -19.28 Lon: 147.06 Height: 0.0 m
Data from the previous 72 hours. | See also: Recent months for locations in Queensland
Date/Time
EST
Temp
°C
Wind Pressure Rain since
9am
mm
Weather Cloud Vis
km
Sea
Height
m
Swell
Dir  Spd
kts
Gust
kts
hPa Trend Height
m
Period
s
Dir
05/06:00pm 27.2 ENE 8 12 1012.4 - - - - - - - - -
05/05:30pm 27.2 ENE 8 11 1012.2 - - - - - - - - -
05/05:00pm 27.3 ENE 8 10 1012.1 - - - - - - - - -
05/04:30pm 27.4 ENE 7 9 1012.1 - - - - - - - - -
05/04:00pm 27.3 ENE 9 11 1012.0 - - - - - - - - -
05/03:30pm 27.3 ENE 11 13 1012.1 - - - - - - - - -
05/03:00pm 27.4 ENE 11 13 1012.4 - - - - - - - - -
05/02:30pm 27.6 ENE 10 12 1012.4 - - - - - - - - -
05/02:00pm 27.6 ENE 10 13 1012.6 - - - - - - - - -
05/01:30pm 27.4 ENE 10 12 1012.9 - - - - - - - - -
05/01:00pm 27.3 E 8 10 1013.3 - - - - - - - - -
05/12:30pm 27.4 E 6 8 1013.7 - - - - - - - - -
05/12:00pm 27.4 E 7 9 1013.9 - - - - - - - - -
05/11:30am 27.2 E 7 10 1014.3 - - - - - - - - -
05/11:00am 27.3 E 8 11 1014.6 - - - - - - - - -
05/10:30am 27.3 ENE 8 11 1015.0 - - - - - - - - -
05/10:00am 27.4 E 8 10 1015.2 - - - - - - - - -
05/09:30am 27.3 ENE 8 10 1015.3 - - - - - - - - -
05/09:00am 27.5 ENE 7 11 1015.5 - - - - - - - - -
05/08:30am 27.3 E 8 11 1015.4 - - - - - - - - -
05/08:00am 27.3 E 9 12 1015.3 - - - - - - - - -
05/07:30am 27.3 E 10 12 1015.2 - - - - - - - - -
05/07:00am 27.0 ENE 9 11 1015.0 - - - - - - - - -
05/06:30am 27.0 ENE 10 13 1014.6 - - - - - - - - -
05/06:00am 26.9 ENE 9 12 1014.0 - - - - - - - - -
05/05:30am 26.8 ENE 8 10 1013.7 - - - - - - - - -
05/05:00am 26.8 ENE 9 11 1013.3 - - - - - - - - -
05/04:30am 26.9 E 8 10 1013.0 - - - - - - - - -
05/04:00am 26.9 ENE 10 13 1012.8 - - - - - - - - -
05/03:30am 26.8 ENE 8 11 1012.5 - - - - - - - - -
05/03:00am 26.8 E 10 13 1012.6 - - - - - - - - -
05/02:30am 26.9 ENE 10 12 1012.5 - - - - - - - - -
05/02:00am 26.9 ENE 9 12 1012.7 - - - - - - - - -
05/01:30am 26.8 ENE 9 11 1012.7 - - - - - - - - -
05/01:00am 26.9 ENE 9 12 1013.1 - - - - - - - - -
05/12:30am 26.9 ENE 9 11 1013.5 - - - - - - - - -
05/12:00am 27.1 ENE 9 11 1013.8 - - - - - - - - -
 
Date/Time
EST
Temp
°C
Wind Pressure Rain since
9am
mm
Weather Cloud Vis
km
Sea
Height
m
Swell
Dir  Spd
kts
Gust
kts
hPa Trend Height
m
Period
s
Dir
04/11:30pm 27.1 ENE 8 10 1013.9 - - - - - - - - -
04/11:00pm 27.1 ENE 8 11 1013.9 - - - - - - - - -
04/10:30pm 27.1 ENE 8 10 1014.1 - - - - - - - - -
04/10:00pm 27.3 ENE 7 9 1013.9 - - - - - - - - -
04/09:30pm 27.2 ENE 5 9 1013.6 - - - - - - - - -
04/09:00pm 27.2 ENE 8 11 1013.4 - - - - - - - - -
04/08:30pm 27.3 ENE 8 11 1013.2 - - - - - - - - -
04/08:00pm 27.3 ENE 8 10 1013.0 - - - - - - - - -
04/07:30pm 27.3 ENE 7 10 1012.8 - - - - - - - - -
04/07:00pm 27.4 ENE 7 9 1012.7 - - - - - - - - -
04/06:30pm 27.5 ENE 7 10 1012.6 - - - - - - - - -
04/06:00pm 27.5 ENE 9 11 1012.5 - - - - - - - - -
04/05:30pm 27.6 ENE 9 11 1012.4 - - - - - - - - -
04/05:00pm 27.6 ENE 8 10 1012.2 - - - - - - - - -
04/04:30pm 27.7 ENE 7 10 1011.9 - - - - - - - - -
04/04:00pm 28.1 ENE 7 11 1011.8 - - - - - - - - -
04/03:30pm 27.7 ENE 7 10 1011.9 - - - - - - - - -
04/03:00pm 27.9 ENE 8 12 1012.0 - - - - - - - - -
04/02:30pm 27.9 ENE 7 11 1012.2 - - - - - - - - -
04/02:00pm 27.6 ENE 6 9 1012.5 - - - - - - - - -
04/01:30pm 27.6 ENE 6 9 1013.0 - - - - - - - - -
04/01:00pm 27.4 ENE 5 7 1013.5 - - - - - - - - -
04/12:30pm 27.3 E 5 8 1013.6 - - - - - - - - -
04/12:00pm 27.4 ENE 5 8 1014.1 - - - - - - - - -
04/11:30am 27.7 ENE 5 9 1014.5 - - - - - - - - -
04/11:00am 27.4 ENE 7 9 1014.9 - - - - - - - - -
04/10:30am 27.4 ENE 7 9 1015.3 - - - - - - - - -
04/10:00am 27.4 ENE 8 10 1015.7 - - - - - - - - -
04/09:30am 27.5 E 10 12 1016.0 - - - - - - - - -
04/09:00am 27.4 ENE 11 14 1016.2 - - - - - - - - -
04/08:30am 27.4 E 11 14 1016.3 - - - - - - - - -
04/08:00am 27.3 E 10 12 1015.9 - - - - - - - - -
04/07:30am 27.4 ENE 8 11 1014.9 - - - - - - - - -
04/07:00am 27.1 ENE 10 13 1014.6 - - - - - - - - -
04/06:30am 27.1 ENE 8 12 1014.3 - - - - - - - - -
04/06:00am 26.9 ENE 7 11 1014.1 - - - - - - - - -
04/05:30am 26.8 ENE 9 12 1014.0 - - - - - - - - -
04/05:00am 26.8 ENE 9 11 1013.9 - - - - - - - - -
04/04:30am 26.9 ENE 9 12 1013.6 - - - - - - - - -
04/04:00am 26.9 ENE 8 10 1013.4 - - - - - - - - -
04/03:30am 26.8 ENE 8 10 1013.1 - - - - - - - - -
04/03:00am 26.8 E 7 9 1013.0 - - - - - - - - -
04/02:30am 26.8 ENE 7 9 1013.0 - - - - - - - - -
04/02:00am 26.9 ENE 7 10 1013.1 - - - - - - - - -
04/01:30am 27.0 ENE 6 8 1013.2 - - - - - - - - -
04/01:00am 26.9 ENE 6 8 1013.1 - - - - - - - - -
04/12:30am 26.9 ENE 7 10 1013.3 - - - - - - - - -
04/12:00am 26.9 ENE 7 11 1013.4 - - - - - - - - -
 
Date/Time
EST
Temp
°C
Wind Pressure Rain since
9am
mm
Weather Cloud Vis
km
Sea
Height
m
Swell
Dir  Spd
kts
Gust
kts
hPa Trend Height
m
Period
s
Dir
03/11:30pm 26.9 ENE 6 8 1013.5 - - - - - - - - -
03/11:00pm 27.1 ENE 6 11 1013.7 - - - - - - - - -
03/10:30pm 27.1 NE 4 8 1013.9 - - - - - - - - -
03/10:00pm 27.1 ENE 5 7 1013.9 - - - - - - - - -
03/09:30pm 27.0 ENE 5 9 1013.7 - - - - - - - - -
03/09:00pm 27.1 ENE 6 8 1013.3 - - - - - - - - -
03/08:30pm 27.2 ENE 5 8 1013.3 - - - - - - - - -
03/08:00pm 27.2 ENE 3 9 1013.1 - - - - - - - - -
03/07:30pm 27.3 ENE 5 9 1012.8 - - - - - - - - -
03/07:00pm 27.4 ENE 5 9 1012.7 - - - - - - - - -
03/06:30pm 27.6 NE 5 11 1012.5 - - - - - - - - -
03/06:00pm 27.6 ENE 6 10 1012.2 - - - - - - - - -
03/05:30pm 27.7 ENE 8 13 1012.2 - - - - - - - - -
03/05:00pm 27.6 ENE 8 13 1011.9 - - - - - - - - -
03/04:30pm 27.9 ENE 7 13 1011.8 - - - - - - - - -
03/04:00pm 27.8 NE 7 15 1011.5 - - - - - - - - -
03/03:30pm 27.7 ENE 7 13 1011.7 - - - - - - - - -
03/03:00pm 27.9 ENE 7 12 1011.9 - - - - - - - - -
03/02:30pm 28.1 NE 5 12 1012.0 - - - - - - - - -
03/02:00pm 27.9 ENE 7 13 1012.2 - - - - - - - - -
03/01:30pm 27.8 NE 8 14 1012.4 - - - - - - - - -
03/01:00pm 27.7 NE 9 15 1012.7 - - - - - - - - -
03/12:30pm 27.9 NE 9 16 1012.9 - - - - - - - - -
03/12:00pm 27.9 NE 8 16 1013.0 - - - - - - - - -
03/11:30am 28.1 NE 9 14 1013.2 - - - - - - - - -
03/11:00am 28.1 NE 8 13 1013.3 - - - - - - - - -
03/10:30am 27.6 NE 9 16 1013.6 - - - - - - - - -
03/10:00am 27.6 NNE 10 15 1013.6 - - - - - - - - -
03/09:30am 27.7 NE 7 16 1013.8 - - - - - - - - -
03/09:00am 27.8 NE 6 12 1013.6 - - - - - - - - -
03/08:30am 27.6 ESE 3 5 1013.7 - - - - - - - - -
03/08:00am 27.4 SSE 3 4 1013.3 - - - - - - - - -
03/07:30am 26.9 SSW 3 5 1013.0 - - - - - - - - -
03/07:00am 26.6 CALM 0 2 1012.9 - - - - - - - - -
03/06:30am 25.3 CALM 0 2 1012.6 - - - - - - - - -
03/06:00am 24.0 WNW 2 4 1012.2 - - - - - - - - -
03/05:30am 23.9 WNW 1 3 1012.0 - - - - - - - - -
03/05:00am 25.0 CALM 0 1 1011.9 - - - - - - - - -
03/04:30am 24.8 CALM 0 2 1011.7 - - - - - - - - -
03/04:00am 24.8 NW 1 4 1011.5 - - - - - - - - -
03/03:30am 25.1 NW 2 4 1011.3 - - - - - - - - -
03/03:00am 25.5 NW 1 4 1011.3 - - - - - - - - -
03/02:30am 26.2 NW 2 5 1011.4 - - - - - - - - -
03/02:00am 26.4 NW 3 6 1011.4 - - - - - - - - -
03/01:30am 26.6 NW 5 9 1011.5 - - - - - - - - -
03/01:00am 26.7 WNW 5 9 1011.8 - - - - - - - - -
03/12:30am 26.8 NW 5 9 1012.2 - - - - - - - - -
03/12:00am 27.0 WNW 4 9 1012.6 - - - - - - - - -
 
Date/Time
EST
Temp
°C
Wind Pressure Rain since
9am
mm
Weather Cloud Vis
km
Sea
Height
m
Swell
Dir  Spd
kts
Gust
kts
hPa Trend Height
m
Period
s
Dir
02/11:30pm 27.0 WNW 3 10 1012.8 - - - - - - - - -
02/11:00pm 26.9 WNW 5 7 1013.0 - - - - - - - - -
02/10:30pm 27.0 WNW 4 9 1013.0 - - - - - - - - -
02/10:00pm 27.0 WNW 7 11 1013.1 - - - - - - - - -
02/09:30pm 27.1 WNW 5 8 1013.1 - - - - - - - - -
02/09:00pm 27.0 NW 3 9 1012.6 - - - - - - - - -
02/08:30pm 27.0 WNW 6 10 1012.5 - - - - - - - - -
02/08:00pm 27.2 WNW 7 12 1012.1 - - - - - - - - -
02/07:30pm 27.3 W 4 10 1011.9 - - - - - - - - -
02/07:00pm 27.4 W 3 8 1011.6 - - - - - - - - -
02/06:30pm 27.6 SSW 3 11 1011.1 - - - - - - - - -

Other Formats:

Comma delimited format used in spreadsheet applications
http://www.bom.gov.au/fwo/IDQ60701/IDQ60701.94297.axf

JavaScript Object Notation format (JSON) in row-major order
http://www.bom.gov.au/fwo/IDQ60701/IDQ60701.94297.json